createdAt,value
2023-01-08T00:01:56.687Z,74.12
2023-01-08T00:04:27.735Z,74.29
2023-01-08T00:06:58.344Z,73.84
2023-01-08T00:09:29.100Z,73.73
2023-01-08T00:11:59.847Z,73.78
2023-01-08T00:14:31.203Z,73.46
2023-01-08T00:17:02.863Z,73.35
2023-01-08T00:19:34.256Z,73.62
2023-01-08T00:22:04.903Z,72.91
2023-01-08T00:24:35.696Z,72.85
2023-01-08T00:27:06.586Z,72.71
2023-01-08T00:29:40.202Z,72.53
2023-01-08T00:32:10.917Z,72.09
2023-01-08T00:34:41.894Z,71.68
2023-01-08T00:37:12.702Z,71.60
2023-01-08T00:39:43.448Z,72.44
2023-01-08T00:42:14.762Z,72.00
2023-01-08T00:44:45.520Z,71.51
2023-01-08T00:47:16.356Z,71.30
2023-01-08T00:49:47.064Z,71.14
2023-01-08T00:52:17.733Z,71.07
2023-01-08T00:54:50.525Z,71.34
2023-01-08T00:57:25.233Z,71.19
2023-01-08T00:59:56.050Z,70.81
2023-01-08T01:02:27.858Z,70.99
2023-01-08T01:04:58.619Z,70.92
2023-01-08T01:07:29.552Z,70.92
2023-01-08T01:10:00.314Z,71.37
2023-01-08T01:12:30.966Z,70.92
2023-01-08T01:15:01.751Z,70.73
2023-01-08T01:17:32.466Z,71.39
2023-01-08T01:20:03.094Z,71.11
2023-01-08T01:22:33.830Z,71.25
2023-01-08T01:25:05.241Z,71.13
2023-01-08T01:27:36.194Z,70.84
2023-01-08T01:30:08.779Z,70.31
2023-01-08T01:32:39.855Z,70.56
2023-01-08T01:35:11.541Z,70.48
2023-01-08T01:37:42.235Z,69.98
2023-01-08T01:40:13.856Z,70.09
2023-01-08T01:42:44.672Z,69.75
2023-01-08T01:45:27.773Z,70.06
2023-01-08T01:48:02.021Z,70.54
2023-01-08T01:50:39.038Z,69.86
2023-01-08T01:53:13.942Z,70.32
2023-01-08T01:55:46.920Z,70.03
2023-01-08T01:58:22.412Z,69.95
2023-01-08T02:00:57.180Z,69.87
2023-01-08T02:03:31.406Z,69.16
2023-01-08T02:06:31.797Z,69.18
2023-01-08T02:09:10.464Z,69.43
2023-01-08T02:12:10.443Z,69.47
2023-01-08T02:14:48.526Z,69.23
2023-01-08T02:17:27.716Z,69.27
2023-01-08T02:20:04.144Z,69.43
2023-01-08T02:22:46.789Z,69.31
2023-01-08T02:25:25.641Z,69.38
2023-01-08T02:27:55.990Z,69.04
2023-01-08T02:30:28.046Z,69.56
2023-01-08T02:33:00.557Z,69.24
2023-01-08T02:35:41.228Z,69.31
2023-01-08T02:38:15.487Z,69.18
2023-01-08T02:40:54.631Z,69.21
2023-01-08T02:43:33.260Z,69.16
2023-01-08T02:46:05.363Z,69.20
2023-01-08T02:48:41.034Z,69.28
2023-01-08T02:51:18.736Z,69.09
2023-01-08T02:53:52.256Z,69.11
2023-01-08T02:56:27.569Z,69.11
2023-01-08T02:58:59.882Z,69.31
2023-01-08T03:01:32.501Z,69.42
2023-01-08T03:04:09.232Z,69.54
2023-01-08T03:06:41.152Z,69.64
2023-01-08T03:09:12.613Z,69.40
2023-01-08T03:11:49.887Z,69.63
2023-01-08T03:14:26.531Z,69.36
2023-01-08T03:17:01.039Z,69.26
2023-01-08T03:19:38.029Z,69.29
2023-01-08T03:22:11.435Z,69.45
2023-01-08T03:24:45.000Z,69.34
2023-01-08T03:27:20.403Z,69.42
2023-01-08T03:29:53.867Z,69.62
2023-01-08T03:32:25.867Z,69.59
2023-01-08T03:35:00.652Z,69.56
2023-01-08T03:37:36.346Z,69.49
2023-01-08T03:40:12.683Z,69.46
2023-01-08T03:42:43.632Z,70.37
2023-01-08T03:45:14.538Z,70.34
2023-01-08T03:47:46.853Z,70.19
2023-01-08T03:50:22.305Z,70.01
2023-01-08T03:52:53.029Z,70.02
2023-01-08T03:55:23.865Z,70.13
2023-01-08T03:57:54.677Z,69.87
2023-01-08T04:00:25.390Z,70.12
2023-01-08T04:02:56.088Z,70.20
2023-01-08T04:05:26.879Z,70.21
2023-01-08T04:07:59.483Z,70.06
2023-01-08T04:10:30.111Z,70.21
2023-01-08T04:13:00.756Z,70.14
2023-01-08T04:15:31.391Z,70.28
2023-01-08T04:18:02.104Z,70.22
2023-01-08T04:20:32.830Z,70.23
2023-01-08T04:23:03.414Z,70.06
2023-01-08T04:25:34.137Z,69.98
2023-01-08T04:28:04.754Z,70.22
2023-01-08T04:30:35.506Z,70.09
2023-01-08T04:33:06.424Z,70.19
2023-01-08T04:35:37.399Z,70.42
2023-01-08T04:38:09.380Z,70.02
2023-01-08T04:40:40.540Z,69.88
2023-01-08T04:43:11.245Z,70.14
2023-01-08T04:45:41.925Z,69.89
2023-01-08T04:48:12.503Z,69.77
2023-01-08T04:50:43.128Z,69.95
2023-01-08T04:53:13.755Z,70.16
2023-01-08T04:55:44.608Z,70.40
2023-01-08T04:58:15.223Z,70.25
2023-01-08T05:00:46.126Z,70.23
2023-01-08T05:03:16.871Z,70.29
2023-01-08T05:05:49.849Z,70.32
2023-01-08T05:08:20.790Z,70.57
2023-01-08T05:10:51.416Z,70.19
2023-01-08T05:13:22.092Z,70.23
2023-01-08T05:15:52.748Z,70.27
2023-01-08T05:18:23.647Z,70.29
2023-01-08T05:20:54.239Z,70.48
2023-01-08T05:23:24.880Z,70.67
2023-01-08T05:25:57.654Z,70.71
2023-01-08T05:28:26.858Z,70.37
2023-01-08T05:30:57.997Z,70.57
2023-01-08T05:33:29.155Z,70.52
2023-01-08T05:35:59.764Z,70.62
2023-01-08T05:38:30.508Z,70.27
2023-01-08T05:41:01.228Z,70.38
2023-01-08T05:43:32.619Z,70.39
2023-01-08T05:46:03.937Z,70.49
2023-01-08T05:48:36.113Z,70.67
2023-01-08T05:51:07.192Z,70.82
2023-01-08T05:53:37.783Z,70.41
2023-01-08T05:56:11.961Z,70.80
2023-01-08T05:58:42.556Z,70.78
2023-01-08T06:01:15.887Z,70.75
2023-01-08T06:03:46.887Z,70.63
2023-01-08T06:06:18.477Z,70.76
2023-01-08T06:08:49.183Z,70.65
2023-01-08T06:11:19.815Z,70.71
2023-01-08T06:13:50.484Z,70.57
2023-01-08T06:16:22.412Z,70.57
2023-01-08T06:18:53.089Z,70.80
2023-01-08T06:21:23.823Z,70.68
2023-01-08T06:23:54.488Z,70.45
2023-01-08T06:26:25.154Z,70.09
2023-01-08T06:28:55.775Z,70.20
2023-01-08T06:31:26.699Z,70.64
2023-01-08T06:33:57.645Z,70.63
2023-01-08T06:36:28.653Z,70.42
2023-01-08T06:38:59.227Z,70.70
2023-01-08T06:41:29.908Z,70.70
2023-01-08T06:44:00.504Z,70.66
2023-01-08T06:46:31.787Z,70.93
2023-01-08T06:49:02.546Z,70.68
2023-01-08T06:51:33.423Z,70.79
2023-01-08T06:54:04.141Z,70.88
2023-01-08T06:56:48.846Z,70.80
2023-01-08T06:59:23.545Z,70.61
2023-01-08T07:01:54.608Z,70.68
2023-01-08T07:04:29.128Z,70.82
2023-01-08T07:07:02.754Z,70.96
2023-01-08T07:09:34.462Z,70.77
2023-01-08T07:12:05.188Z,70.59
2023-01-08T07:14:35.820Z,70.58
2023-01-08T07:17:06.820Z,70.80
2023-01-08T07:19:37.515Z,70.88
2023-01-08T07:22:08.226Z,70.64
2023-01-08T07:24:38.838Z,70.76
2023-01-08T07:27:09.528Z,70.73
2023-01-08T07:29:40.320Z,70.64
2023-01-08T07:32:14.165Z,70.73
2023-01-08T07:34:45.068Z,70.78
2023-01-08T07:37:21.099Z,70.81
2023-01-08T07:39:53.155Z,70.77
2023-01-08T07:42:23.774Z,70.76
2023-01-08T07:44:54.445Z,70.61
2023-01-08T07:47:25.094Z,70.87
2023-01-08T07:49:55.965Z,70.66
2023-01-08T07:52:26.652Z,70.86
2023-01-08T07:54:57.297Z,71.05
2023-01-08T07:57:32.308Z,70.88
2023-01-08T08:00:03.196Z,70.60
2023-01-08T08:02:56.005Z,70.67
2023-01-08T08:05:26.910Z,70.79
2023-01-08T08:07:57.752Z,70.86
2023-01-08T08:10:28.444Z,70.72
2023-01-08T08:12:59.148Z,70.72
2023-01-08T08:15:29.857Z,70.47
2023-01-08T08:18:00.472Z,70.58
2023-01-08T08:20:31.156Z,70.53
2023-01-08T08:23:05.951Z,70.54
2023-01-08T08:25:36.875Z,70.54
2023-01-08T08:28:08.451Z,70.18
2023-01-08T08:30:42.338Z,69.89
2023-01-08T08:33:14.047Z,69.94
2023-01-08T08:35:51.406Z,69.89
2023-01-08T08:38:24.059Z,69.74
2023-01-08T08:40:55.465Z,69.56
2023-01-08T08:43:26.110Z,69.32
2023-01-08T08:45:57.846Z,68.71
2023-01-08T08:48:28.576Z,68.30
2023-01-08T08:50:59.157Z,67.93
2023-01-08T08:53:29.877Z,67.93
2023-01-08T08:56:02.215Z,67.81
2023-01-08T08:58:32.890Z,67.65
2023-01-08T09:01:05.714Z,67.36
2023-01-08T09:03:36.788Z,67.08
2023-01-08T09:06:13.487Z,67.13
2023-01-08T09:08:44.267Z,66.92
2023-01-08T09:11:15.004Z,66.92
2023-01-08T09:13:45.709Z,68.00
2023-01-08T09:16:16.413Z,68.08
2023-01-08T09:18:49.064Z,68.68
2023-01-08T09:21:19.702Z,68.33
2023-01-08T09:23:52.150Z,68.45
2023-01-08T09:26:22.781Z,68.44
2023-01-08T09:28:53.470Z,69.20
2023-01-08T09:31:24.270Z,69.16
2023-01-08T09:33:55.276Z,69.29
2023-01-08T09:36:26.243Z,69.37
2023-01-08T09:38:56.849Z,67.99
2023-01-08T09:41:31.362Z,69.25
2023-01-08T09:44:04.392Z,69.62
2023-01-08T09:46:35.798Z,69.31
2023-01-08T09:49:13.769Z,70.04
2023-01-08T09:51:44.746Z,68.47
2023-01-08T09:54:17.878Z,67.41
2023-01-08T09:56:48.819Z,66.84
2023-01-08T09:59:20.989Z,66.99
2023-01-08T10:01:53.513Z,67.26
2023-01-08T10:04:27.495Z,67.22
2023-01-08T10:07:02.723Z,67.43
2023-01-08T10:09:34.899Z,67.59
2023-01-08T10:12:07.661Z,67.85
2023-01-08T10:14:38.686Z,67.92
2023-01-08T10:17:11.668Z,68.29
2023-01-08T10:19:42.818Z,68.44
2023-01-08T10:22:17.665Z,68.41
2023-01-08T10:24:48.902Z,68.58
2023-01-08T10:27:22.250Z,68.53
2023-01-08T10:29:54.307Z,68.74
2023-01-08T10:32:29.903Z,68.86
2023-01-08T10:35:05.778Z,69.02
2023-01-08T10:37:42.911Z,68.76
2023-01-08T10:40:29.469Z,68.77
2023-01-08T10:43:07.410Z,68.74
2023-01-08T10:45:38.525Z,68.73
2023-01-08T10:48:17.914Z,68.87
2023-01-08T10:50:49.070Z,68.64
2023-01-08T10:53:29.100Z,68.80
2023-01-08T10:56:05.519Z,68.70
2023-01-08T10:58:44.762Z,68.74
2023-01-08T11:01:21.667Z,68.76
2023-01-08T11:03:55.240Z,68.65
2023-01-08T11:06:29.353Z,68.60
2023-01-08T11:09:02.263Z,68.51
2023-01-08T11:11:35.388Z,68.36
2023-01-08T11:14:17.311Z,68.13
2023-01-08T11:16:48.355Z,68.09
2023-01-08T11:19:23.884Z,67.89
2023-01-08T11:22:03.034Z,67.93
2023-01-08T11:24:36.317Z,67.87
2023-01-08T11:27:14.712Z,67.66
2023-01-08T11:29:48.644Z,67.81
2023-01-08T11:32:31.454Z,67.42
2023-01-08T11:35:07.933Z,67.53
2023-01-08T11:37:41.337Z,67.45
2023-01-08T11:40:18.324Z,67.42
2023-01-08T11:43:04.403Z,67.47
2023-01-08T11:45:49.402Z,67.85
2023-01-08T11:48:33.102Z,71.66
2023-01-08T11:51:18.241Z,70.83
2023-01-08T11:53:59.582Z,69.76
2023-01-08T11:56:48.345Z,67.39
2023-01-08T11:59:28.432Z,67.09
2023-01-08T12:02:08.048Z,66.79
2023-01-08T12:05:00.656Z,66.73
2023-01-08T12:07:38.156Z,66.89
2023-01-08T12:10:25.352Z,66.91
2023-01-08T12:13:07.823Z,67.02
2023-01-08T12:15:50.236Z,67.06
2023-01-08T12:18:35.092Z,67.00
2023-01-08T12:21:07.417Z,67.31
2023-01-08T12:23:53.072Z,67.23
2023-01-08T12:26:30.291Z,67.78
2023-01-08T12:29:36.748Z,67.47
2023-01-08T12:32:23.652Z,67.59
2023-01-08T12:35:01.685Z,67.54
2023-01-08T12:37:40.376Z,67.87
2023-01-08T12:40:19.000Z,67.77
2023-01-08T12:42:59.885Z,68.12
2023-01-08T12:45:34.211Z,68.00
2023-01-08T12:48:08.813Z,68.06
2023-01-08T12:50:57.958Z,68.07
2023-01-08T12:53:38.792Z,68.21
2023-01-08T12:56:15.332Z,68.60
2023-01-08T12:59:09.960Z,68.57
2023-01-08T13:01:49.081Z,68.57
2023-01-08T13:04:20.577Z,68.40
2023-01-08T13:07:00.952Z,68.64
2023-01-08T13:09:40.629Z,68.76
2023-01-08T13:12:35.077Z,68.89
2023-01-08T13:15:05.025Z,69.01
2023-01-08T13:17:36.995Z,69.32
2023-01-08T13:20:10.156Z,69.13
2023-01-08T13:22:41.933Z,69.09
2023-01-08T13:25:30.986Z,69.12
2023-01-08T13:28:02.785Z,69.24
2023-01-08T13:30:42.225Z,69.13
2023-01-08T13:33:41.987Z,69.42
2023-01-08T13:36:27.884Z,69.52
2023-01-08T13:39:23.302Z,69.41
2023-01-08T13:42:07.140Z,69.56
2023-01-08T13:44:42.464Z,69.44
2023-01-08T13:47:25.246Z,69.82
2023-01-08T13:49:56.908Z,69.61
2023-01-08T13:52:49.161Z,69.59
2023-01-08T13:55:25.833Z,69.67
2023-01-08T13:58:00.431Z,69.68
2023-01-08T14:00:40.256Z,69.86
2023-01-08T14:03:25.373Z,70.08
2023-01-08T14:06:08.792Z,70.06
2023-01-08T14:08:50.095Z,70.12
2023-01-08T14:11:22.350Z,70.49
2023-01-08T14:13:54.313Z,70.99
2023-01-08T14:16:30.568Z,71.24
2023-01-08T14:19:05.964Z,71.59
2023-01-08T14:21:37.124Z,71.78
2023-01-08T14:24:16.588Z,71.73
2023-01-08T14:26:55.266Z,71.66
2023-01-08T14:29:30.840Z,72.01
2023-01-08T14:32:02.883Z,72.01
2023-01-08T14:34:37.894Z,72.40
2023-01-08T14:37:13.576Z,72.37
2023-01-08T14:39:45.198Z,72.58
2023-01-08T14:42:47.517Z,72.63
2023-01-08T14:45:25.374Z,72.64
2023-01-08T14:47:59.393Z,73.20
2023-01-08T14:50:34.729Z,73.32
2023-01-08T14:53:11.194Z,73.54
2023-01-08T14:55:47.366Z,73.84
2023-01-08T14:58:21.699Z,73.91
2023-01-08T15:00:57.571Z,74.06
2023-01-08T15:03:35.551Z,74.13
2023-01-08T15:06:07.471Z,74.47
2023-01-08T15:08:41.005Z,74.66
2023-01-08T15:11:22.492Z,74.49
2023-01-08T15:13:55.199Z,74.42
2023-01-08T15:16:32.074Z,74.54
2023-01-08T15:19:08.723Z,74.56
2023-01-08T15:21:39.896Z,74.50
2023-01-08T15:24:22.447Z,74.35
2023-01-08T15:26:54.184Z,74.19
2023-01-08T15:29:29.101Z,74.07
2023-01-08T15:32:09.524Z,73.92
2023-01-08T15:34:50.915Z,73.72
2023-01-08T15:37:22.057Z,73.82
2023-01-08T15:39:53.039Z,73.55
2023-01-08T15:42:44.311Z,73.54
2023-01-08T15:45:16.943Z,73.74
2023-01-08T15:47:47.913Z,73.70
2023-01-08T15:50:20.524Z,73.65
2023-01-08T15:52:51.495Z,73.80
2023-01-08T15:56:25.223Z,73.53
2023-01-08T15:58:56.018Z,73.41
2023-01-08T16:01:28.867Z,73.22
2023-01-08T16:03:58.049Z,73.24
2023-01-08T16:06:28.859Z,73.37
2023-01-08T16:09:00.493Z,73.47
2023-01-08T16:11:31.192Z,73.38
2023-01-08T16:14:01.904Z,73.58
2023-01-08T16:16:32.645Z,73.55
2023-01-08T16:19:03.607Z,73.53
2023-01-08T16:21:34.739Z,73.52
2023-01-08T16:24:06.048Z,73.37
2023-01-08T16:26:36.724Z,73.42
2023-01-08T16:29:07.389Z,73.39
2023-01-08T16:31:38.581Z,73.65
2023-01-08T16:34:09.266Z,73.96
2023-01-08T16:36:40.306Z,73.77
2023-01-08T16:39:11.150Z,74.17
2023-01-08T16:41:42.203Z,74.22
2023-01-08T16:44:20.271Z,74.11
2023-01-08T16:46:51.311Z,74.11
2023-01-08T16:49:22.285Z,73.89
2023-01-08T16:51:53.092Z,74.11
2023-01-08T16:54:23.834Z,73.87
2023-01-08T16:56:55.066Z,73.91
2023-01-08T16:59:27.026Z,74.10
2023-01-08T17:01:57.880Z,73.76
2023-01-08T17:04:29.448Z,73.99
2023-01-08T17:07:00.309Z,73.97
2023-01-08T17:09:31.199Z,73.96
2023-01-08T17:12:02.270Z,73.81
2023-01-08T17:14:33.129Z,73.94
2023-01-08T17:17:04.014Z,73.99
2023-01-08T17:19:34.695Z,73.78
2023-01-08T17:22:05.408Z,74.01
2023-01-08T17:24:36.130Z,74.07
2023-01-08T17:27:08.018Z,74.06
2023-01-08T17:29:39.280Z,73.76
2023-01-08T17:32:11.681Z,73.84
2023-01-08T17:34:42.412Z,73.90
2023-01-08T17:37:13.308Z,73.79
2023-01-08T17:39:45.748Z,74.20
2023-01-08T17:42:26.932Z,74.12
2023-01-08T17:45:00.309Z,74.07
2023-01-08T17:47:31.802Z,74.09
2023-01-08T17:50:05.990Z,73.96
2023-01-08T17:52:37.709Z,73.87
2023-01-08T17:55:09.937Z,74.14
2023-01-08T17:57:40.692Z,74.08
2023-01-08T18:00:13.743Z,74.15
2023-01-08T18:02:44.606Z,74.08
2023-01-08T18:05:15.415Z,74.15
2023-01-08T18:07:46.133Z,74.31
2023-01-08T18:10:16.872Z,74.07
2023-01-08T18:12:47.523Z,74.33
2023-01-08T18:15:18.198Z,74.51
2023-01-08T18:17:49.751Z,74.33
2023-01-08T18:20:20.950Z,74.57
2023-01-08T18:22:51.606Z,74.43
2023-01-08T18:25:22.429Z,74.58
2023-01-08T18:27:53.250Z,74.62
2023-01-08T18:30:25.087Z,74.62
2023-01-08T18:32:55.949Z,74.63
2023-01-08T18:35:26.771Z,74.74
2023-01-08T18:37:59.173Z,74.65
2023-01-08T18:40:29.840Z,74.56
2023-01-08T18:43:00.569Z,74.66
2023-01-08T18:45:35.255Z,74.79
2023-01-08T18:48:07.869Z,74.80
2023-01-08T18:50:43.079Z,74.91
2023-01-08T18:53:13.928Z,74.82
2023-01-08T18:55:44.574Z,74.98
2023-01-08T18:58:15.683Z,75.00
2023-01-08T19:00:46.597Z,74.96
2023-01-08T19:03:17.623Z,75.02
2023-01-08T19:05:48.438Z,75.04
2023-01-08T19:08:19.123Z,75.15
2023-01-08T19:10:50.368Z,75.20
2023-01-08T19:13:21.327Z,75.12
2023-01-08T19:15:51.980Z,75.22
2023-01-08T19:18:22.997Z,75.09
2023-01-08T19:20:53.960Z,75.30
2023-01-08T19:23:24.800Z,75.47
2023-01-08T19:25:55.642Z,75.38
2023-01-08T19:28:28.988Z,75.43
2023-01-08T19:31:01.120Z,75.55
2023-01-08T19:33:32.270Z,75.52
2023-01-08T19:36:08.650Z,75.53
2023-01-08T19:38:40.056Z,75.45
2023-01-08T19:41:30.978Z,75.54
2023-01-08T19:44:01.799Z,75.74
2023-01-08T19:46:32.906Z,75.84
2023-01-08T19:49:05.680Z,75.77
2023-01-08T19:51:36.480Z,75.65
2023-01-08T19:54:07.306Z,75.79
2023-01-08T19:56:38.141Z,75.89
2023-01-08T19:59:08.826Z,75.90
2023-01-08T20:01:41.424Z,75.70
2023-01-08T20:04:13.878Z,75.83
2023-01-08T20:06:45.108Z,75.66
2023-01-08T20:09:15.911Z,75.72
2023-01-08T20:11:47.054Z,75.68
2023-01-08T20:14:20.672Z,75.62
2023-01-08T20:16:51.750Z,75.80
2023-01-08T20:19:22.682Z,75.67
2023-01-08T20:21:53.680Z,75.61
2023-01-08T20:24:24.714Z,75.56
2023-01-08T20:26:55.753Z,75.61
2023-01-08T20:29:28.339Z,75.60
2023-01-08T20:31:59.916Z,75.59
2023-01-08T20:34:30.626Z,75.65
2023-01-08T20:37:01.459Z,75.50
2023-01-08T20:39:32.186Z,75.50
2023-01-08T20:42:05.048Z,75.56
2023-01-08T20:44:36.214Z,75.50
2023-01-08T20:47:07.288Z,75.51
2023-01-08T20:49:37.883Z,75.54
2023-01-08T20:52:08.647Z,75.42
2023-01-08T20:54:40.459Z,75.51
2023-01-08T20:57:11.044Z,75.45
2023-01-08T20:59:41.884Z,75.27
2023-01-08T21:02:13.853Z,75.28
2023-01-08T21:04:44.549Z,75.30
2023-01-08T21:07:15.500Z,75.20
2023-01-08T21:09:46.788Z,75.29
2023-01-08T21:12:17.502Z,75.07
2023-01-08T21:14:48.454Z,75.24
2023-01-08T21:17:19.268Z,75.09
2023-01-08T21:19:50.059Z,75.15
2023-01-08T21:22:20.784Z,75.00
2023-01-08T21:24:51.803Z,74.87
2023-01-08T21:27:22.486Z,75.01
2023-01-08T21:29:53.636Z,75.06
2023-01-08T21:32:24.339Z,75.06
2023-01-08T21:34:55.513Z,74.92
2023-01-08T21:37:26.503Z,74.90
2023-01-08T21:39:57.573Z,74.92
2023-01-08T21:42:48.404Z,74.85
2023-01-08T21:45:29.716Z,74.83
2023-01-08T21:48:00.407Z,74.88
2023-01-08T21:50:31.135Z,75.00
2023-01-08T21:53:36.193Z,74.92
2023-01-08T21:56:07.980Z,74.94
2023-01-08T21:58:38.775Z,74.99
2023-01-08T22:01:12.784Z,74.92
2023-01-08T22:03:43.801Z,74.87
2023-01-08T22:06:14.891Z,75.00
2023-01-08T22:08:45.720Z,75.00
2023-01-08T22:11:16.534Z,75.01
2023-01-08T22:13:47.285Z,75.06
2023-01-08T22:16:18.048Z,75.18
2023-01-08T22:18:49.205Z,76.98
2023-01-08T22:21:20.376Z,77.85
2023-01-08T22:23:51.134Z,77.87
2023-01-08T22:26:22.070Z,77.17
2023-01-08T22:28:52.805Z,77.07
2023-01-08T22:31:23.724Z,76.84
2023-01-08T22:33:57.307Z,76.44
2023-01-08T22:36:28.390Z,76.49
2023-01-08T22:38:59.267Z,76.51
2023-01-08T22:41:30.056Z,75.32
2023-01-08T22:44:00.750Z,75.60
2023-01-08T22:46:31.683Z,75.23
2023-01-08T22:49:02.322Z,75.39
2023-01-08T22:51:33.030Z,74.78
2023-01-08T22:54:03.640Z,74.83
2023-01-08T22:56:34.309Z,74.84
2023-01-08T22:59:05.923Z,74.53
2023-01-08T23:01:37.139Z,74.04
2023-01-08T23:04:08.099Z,73.97
2023-01-08T23:06:39.232Z,73.79
2023-01-08T23:09:10.194Z,73.71
2023-01-08T23:11:40.925Z,73.63
2023-01-08T23:14:14.123Z,73.55
2023-01-08T23:16:44.959Z,73.08
2023-01-08T23:19:15.874Z,72.82
2023-01-08T23:21:46.499Z,73.02
2023-01-08T23:24:17.261Z,73.32
2023-01-08T23:26:47.947Z,73.20
2023-01-08T23:29:18.624Z,73.12
2023-01-08T23:31:49.356Z,72.60
2023-01-08T23:34:20.266Z,72.83
2023-01-08T23:36:51.045Z,72.94
2023-01-08T23:39:21.748Z,73.06
2023-01-08T23:41:52.549Z,72.73
2023-01-08T23:44:23.159Z,72.61
2023-01-08T23:46:53.749Z,72.52
2023-01-08T23:49:24.740Z,72.39
2023-01-08T23:51:55.924Z,72.43
2023-01-08T23:54:26.806Z,72.62
2023-01-08T23:56:57.653Z,72.41
2023-01-08T23:59:28.558Z,72.18
